sensor_id;sensor_type;location;lat;lon;timestamp;P1;durP1;ratioP1;P2;durP2;ratioP2
7605;SDS011;3844;53.360;9.738;2023-02-15T00:01:33;55.75;;;21.35;;
7605;SDS011;3844;53.360;9.738;2023-02-15T00:03:34;53.58;;;21.63;;
7605;SDS011;3844;53.360;9.738;2023-02-15T00:05:35;59.05;;;22.98;;
7605;SDS011;3844;53.360;9.738;2023-02-15T00:07:36;54.80;;;22.17;;
7605;SDS011;3844;53.360;9.738;2023-02-15T00:09:37;54.78;;;21.95;;
7605;SDS011;3844;53.360;9.738;2023-02-15T00:11:37;61.20;;;23.30;;
7605;SDS011;3844;53.360;9.738;2023-02-15T00:13:51;52.83;;;21.50;;
7605;SDS011;3844;53.360;9.738;2023-02-15T00:15:52;55.92;;;22.90;;
7605;SDS011;3844;53.360;9.738;2023-02-15T00:17:52;53.95;;;22.02;;
7605;SDS011;3844;53.360;9.738;2023-02-15T00:19:53;54.35;;;21.58;;
7605;SDS011;3844;53.360;9.738;2023-02-15T00:21:54;52.90;;;21.83;;
7605;SDS011;3844;53.360;9.738;2023-02-15T00:23:56;55.47;;;21.35;;
7605;SDS011;3844;53.360;9.738;2023-02-15T00:26:30;57.15;;;21.65;;
7605;SDS011;3844;53.360;9.738;2023-02-15T00:28:24;67.70;;;24.42;;
7605;SDS011;3844;53.360;9.738;2023-02-15T00:30:25;63.10;;;23.23;;
7605;SDS011;3844;53.360;9.738;2023-02-15T00:32:26;79.97;;;29.70;;
7605;SDS011;3844;53.360;9.738;2023-02-15T00:34:26;75.15;;;28.48;;
7605;SDS011;3844;53.360;9.738;2023-02-15T00:36:27;67.68;;;26.58;;
7605;SDS011;3844;53.360;9.738;2023-02-15T00:38:28;79.70;;;28.30;;
7605;SDS011;3844;53.360;9.738;2023-02-15T00:40:30;70.57;;;26.75;;
7605;SDS011;3844;53.360;9.738;2023-02-15T00:42:32;79.68;;;28.00;;
7605;SDS011;3844;53.360;9.738;2023-02-15T00:44:33;78.80;;;28.27;;
7605;SDS011;3844;53.360;9.738;2023-02-15T00:46:33;83.63;;;28.17;;
7605;SDS011;3844;53.360;9.738;2023-02-15T00:48:35;85.22;;;29.38;;
7605;SDS011;3844;53.360;9.738;2023-02-15T00:50:37;94.22;;;29.63;;
7605;SDS011;3844;53.360;9.738;2023-02-15T00:52:38;67.30;;;26.65;;
7605;SDS011;3844;53.360;9.738;2023-02-15T00:54:39;79.90;;;29.02;;
7605;SDS011;3844;53.360;9.738;2023-02-15T00:56:40;95.90;;;30.50;;
7605;SDS011;3844;53.360;9.738;2023-02-15T00:58:40;92.30;;;30.30;;
7605;SDS011;3844;53.360;9.738;2023-02-15T01:00:42;91.78;;;29.30;;
7605;SDS011;3844;53.360;9.738;2023-02-15T01:02:45;87.25;;;29.65;;
7605;SDS011;3844;53.360;9.738;2023-02-15T01:04:46;79.65;;;28.92;;
7605;SDS011;3844;53.360;9.738;2023-02-15T01:06:46;79.20;;;28.52;;
7605;SDS011;3844;53.360;9.738;2023-02-15T01:08:47;85.95;;;30.60;;
7605;SDS011;3844;53.360;9.738;2023-02-15T01:10:48;70.22;;;27.13;;
7605;SDS011;3844;53.360;9.738;2023-02-15T01:12:50;69.28;;;27.67;;
7605;SDS011;3844;53.360;9.738;2023-02-15T01:14:51;69.82;;;26.15;;
7605;SDS011;3844;53.360;9.738;2023-02-15T01:16:52;76.05;;;26.67;;
7605;SDS011;3844;53.360;9.738;2023-02-15T01:18:52;76.50;;;26.05;;
7605;SDS011;3844;53.360;9.738;2023-02-15T01:20:57;57.20;;;24.70;;
7605;SDS011;3844;53.360;9.738;2023-02-15T01:22:57;63.88;;;23.15;;
7605;SDS011;3844;53.360;9.738;2023-02-15T01:24:58;53.72;;;21.88;;
7605;SDS011;3844;53.360;9.738;2023-02-15T01:27:01;53.83;;;23.73;;
7605;SDS011;3844;53.360;9.738;2023-02-15T01:29:02;67.35;;;25.52;;
7605;SDS011;3844;53.360;9.738;2023-02-15T01:31:07;54.33;;;22.63;;
7605;SDS011;3844;53.360;9.738;2023-02-15T01:33:09;50.97;;;21.75;;
7605;SDS011;3844;53.360;9.738;2023-02-15T01:35:17;52.35;;;21.77;;
7605;SDS011;3844;53.360;9.738;2023-02-15T01:37:18;56.25;;;22.42;;
7605;SDS011;3844;53.360;9.738;2023-02-15T01:39:18;64.07;;;23.20;;
7605;SDS011;3844;53.360;9.738;2023-02-15T01:41:19;56.13;;;21.25;;
7605;SDS011;3844;53.360;9.738;2023-02-15T01:43:20;71.43;;;22.40;;
7605;SDS011;3844;53.360;9.738;2023-02-15T01:45:25;70.72;;;21.48;;
7605;SDS011;3844;53.360;9.738;2023-02-15T01:47:38;47.08;;;21.33;;
7605;SDS011;3844;53.360;9.738;2023-02-15T01:49:45;60.67;;;20.38;;
7605;SDS011;3844;53.360;9.738;2023-02-15T01:51:48;66.72;;;22.30;;
7605;SDS011;3844;53.360;9.738;2023-02-15T01:53:53;55.47;;;22.60;;
7605;SDS011;3844;53.360;9.738;2023-02-15T01:58:02;76.72;;;22.95;;
7605;SDS011;3844;53.360;9.738;2023-02-15T02:00:04;64.70;;;23.23;;
7605;SDS011;3844;53.360;9.738;2023-02-15T02:02:09;60.53;;;22.05;;
7605;SDS011;3844;53.360;9.738;2023-02-15T02:04:25;76.20;;;24.40;;
7605;SDS011;3844;53.360;9.738;2023-02-15T02:06:32;78.85;;;23.42;;
7605;SDS011;3844;53.360;9.738;2023-02-15T02:08:34;61.90;;;23.92;;
7605;SDS011;3844;53.360;9.738;2023-02-15T02:10:35;55.40;;;21.70;;
7605;SDS011;3844;53.360;9.738;2023-02-15T02:12:36;56.22;;;21.58;;
7605;SDS011;3844;53.360;9.738;2023-02-15T02:14:38;60.10;;;22.77;;
7605;SDS011;3844;53.360;9.738;2023-02-15T02:16:49;53.70;;;21.33;;
7605;SDS011;3844;53.360;9.738;2023-02-15T02:19:29;61.90;;;21.77;;
7605;SDS011;3844;53.360;9.738;2023-02-15T02:42:28;43.88;;;18.63;;
7605;SDS011;3844;53.360;9.738;2023-02-15T02:47:23;50.33;;;18.98;;
7605;SDS011;3844;53.360;9.738;2023-02-15T02:49:38;48.78;;;19.63;;
7605;SDS011;3844;53.360;9.738;2023-02-15T02:51:40;48.70;;;20.27;;
7605;SDS011;3844;53.360;9.738;2023-02-15T02:53:41;46.20;;;18.40;;
7605;SDS011;3844;53.360;9.738;2023-02-15T03:00:08;38.38;;;18.20;;
7605;SDS011;3844;53.360;9.738;2023-02-15T03:02:15;47.53;;;18.73;;
7605;SDS011;3844;53.360;9.738;2023-02-15T03:04:21;37.97;;;18.45;;
7605;SDS011;3844;53.360;9.738;2023-02-15T03:06:29;37.28;;;18.00;;
7605;SDS011;3844;53.360;9.738;2023-02-15T03:08:38;37.53;;;17.92;;
7605;SDS011;3844;53.360;9.738;2023-02-15T03:10:43;38.40;;;18.13;;
7605;SDS011;3844;53.360;9.738;2023-02-15T03:12:44;41.05;;;18.70;;
7605;SDS011;3844;53.360;9.738;2023-02-15T03:14:46;39.03;;;17.25;;
7605;SDS011;3844;53.360;9.738;2023-02-15T03:16:49;34.00;;;17.23;;
7605;SDS011;3844;53.360;9.738;2023-02-15T03:18:53;40.22;;;16.58;;
7605;SDS011;3844;53.360;9.738;2023-02-15T03:21:13;44.03;;;19.55;;
7605;SDS011;3844;53.360;9.738;2023-02-15T03:23:22;39.28;;;18.58;;
7605;SDS011;3844;53.360;9.738;2023-02-15T03:27:36;39.03;;;17.38;;
7605;SDS011;3844;53.360;9.738;2023-02-15T03:29:40;38.83;;;18.38;;
7605;SDS011;3844;53.360;9.738;2023-02-15T03:31:41;36.53;;;16.63;;
7605;SDS011;3844;53.360;9.738;2023-02-15T03:33:51;34.92;;;16.50;;
7605;SDS011;3844;53.360;9.738;2023-02-15T03:36:02;46.53;;;18.38;;
7605;SDS011;3844;53.360;9.738;2023-02-15T03:38:20;39.92;;;16.88;;
7605;SDS011;3844;53.360;9.738;2023-02-15T03:40:26;44.05;;;17.05;;
7605;SDS011;3844;53.360;9.738;2023-02-15T03:42:50;42.83;;;15.90;;
7605;SDS011;3844;53.360;9.738;2023-02-15T03:45:01;46.55;;;16.58;;
7605;SDS011;3844;53.360;9.738;2023-02-15T03:47:06;33.80;;;15.40;;
7605;SDS011;3844;53.360;9.738;2023-02-15T03:51:21;45.90;;;18.05;;
7605;SDS011;3844;53.360;9.738;2023-02-15T03:53:36;39.58;;;17.00;;
7605;SDS011;3844;53.360;9.738;2023-02-15T03:55:39;41.88;;;17.25;;
7605;SDS011;3844;53.360;9.738;2023-02-15T03:57:40;39.60;;;16.48;;
7605;SDS011;3844;53.360;9.738;2023-02-15T04:00:00;39.20;;;16.05;;
7605;SDS011;3844;53.360;9.738;2023-02-15T04:02:24;58.78;;;18.73;;
7605;SDS011;3844;53.360;9.738;2023-02-15T04:04:32;39.47;;;16.33;;
7605;SDS011;3844;53.360;9.738;2023-02-15T04:06:35;43.95;;;17.40;;
7605;SDS011;3844;53.360;9.738;2023-02-15T04:08:36;41.78;;;16.95;;
7605;SDS011;3844;53.360;9.738;2023-02-15T04:10:55;73.43;;;20.73;;
7605;SDS011;3844;53.360;9.738;2023-02-15T04:12:56;46.58;;;18.55;;
7605;SDS011;3844;53.360;9.738;2023-02-15T04:14:57;47.05;;;18.85;;
7605;SDS011;3844;53.360;9.738;2023-02-15T04:17:17;50.08;;;18.75;;
7605;SDS011;3844;53.360;9.738;2023-02-15T04:19:19;40.58;;;17.50;;
7605;SDS011;3844;53.360;9.738;2023-02-15T04:21:39;39.50;;;16.77;;
7605;SDS011;3844;53.360;9.738;2023-02-15T04:23:58;43.60;;;18.17;;
7605;SDS011;3844;53.360;9.738;2023-02-15T04:26:17;49.33;;;16.73;;
7605;SDS011;3844;53.360;9.738;2023-02-15T04:28:18;48.95;;;17.02;;
7605;SDS011;3844;53.360;9.738;2023-02-15T04:30:20;42.30;;;16.88;;
7605;SDS011;3844;53.360;9.738;2023-02-15T04:32:22;44.10;;;16.02;;
7605;SDS011;3844;53.360;9.738;2023-02-15T04:34:23;39.20;;;16.10;;
7605;SDS011;3844;53.360;9.738;2023-02-15T04:36:25;36.08;;;15.40;;
7605;SDS011;3844;53.360;9.738;2023-02-15T04:38:26;43.50;;;15.77;;
7605;SDS011;3844;53.360;9.738;2023-02-15T04:40:28;40.58;;;15.73;;
7605;SDS011;3844;53.360;9.738;2023-02-15T04:42:28;36.15;;;14.88;;
7605;SDS011;3844;53.360;9.738;2023-02-15T04:44:29;37.35;;;14.25;;
7605;SDS011;3844;53.360;9.738;2023-02-15T04:46:30;38.67;;;15.25;;
7605;SDS011;3844;53.360;9.738;2023-02-15T04:48:31;38.58;;;16.40;;
7605;SDS011;3844;53.360;9.738;2023-02-15T04:50:32;35.30;;;14.98;;
7605;SDS011;3844;53.360;9.738;2023-02-15T04:52:33;39.17;;;15.50;;
7605;SDS011;3844;53.360;9.738;2023-02-15T04:54:34;34.38;;;15.45;;
7605;SDS011;3844;53.360;9.738;2023-02-15T04:56:35;34.70;;;15.50;;
7605;SDS011;3844;53.360;9.738;2023-02-15T04:58:37;36.85;;;15.77;;
7605;SDS011;3844;53.360;9.738;2023-02-15T05:00:41;33.97;;;15.65;;
7605;SDS011;3844;53.360;9.738;2023-02-15T05:02:41;29.73;;;13.90;;
7605;SDS011;3844;53.360;9.738;2023-02-15T05:04:42;31.98;;;14.85;;
7605;SDS011;3844;53.360;9.738;2023-02-15T05:06:43;35.17;;;15.60;;
7605;SDS011;3844;53.360;9.738;2023-02-15T05:08:43;38.58;;;16.27;;
7605;SDS011;3844;53.360;9.738;2023-02-15T05:10:44;37.58;;;16.50;;
7605;SDS011;3844;53.360;9.738;2023-02-15T05:12:47;35.60;;;14.85;;
7605;SDS011;3844;53.360;9.738;2023-02-15T05:14:47;43.20;;;16.30;;
7605;SDS011;3844;53.360;9.738;2023-02-15T05:16:49;41.17;;;17.15;;
7605;SDS011;3844;53.360;9.738;2023-02-15T05:18:50;37.38;;;16.30;;
7605;SDS011;3844;53.360;9.738;2023-02-15T05:20:53;34.58;;;14.90;;
7605;SDS011;3844;53.360;9.738;2023-02-15T05:22:54;38.80;;;16.00;;
7605;SDS011;3844;53.360;9.738;2023-02-15T05:24:55;31.92;;;14.65;;
7605;SDS011;3844;53.360;9.738;2023-02-15T05:27:15;36.28;;;15.27;;
7605;SDS011;3844;53.360;9.738;2023-02-15T05:29:34;41.10;;;16.73;;
7605;SDS011;3844;53.360;9.738;2023-02-15T05:31:35;57.13;;;19.00;;
7605;SDS011;3844;53.360;9.738;2023-02-15T05:33:36;40.95;;;16.88;;
7605;SDS011;3844;53.360;9.738;2023-02-15T05:35:37;38.45;;;15.80;;
7605;SDS011;3844;53.360;9.738;2023-02-15T05:37:38;37.05;;;16.10;;
7605;SDS011;3844;53.360;9.738;2023-02-15T05:39:39;38.58;;;16.80;;
7605;SDS011;3844;53.360;9.738;2023-02-15T05:41:39;34.13;;;14.98;;
7605;SDS011;3844;53.360;9.738;2023-02-15T05:43:40;54.60;;;19.55;;
7605;SDS011;3844;53.360;9.738;2023-02-15T05:45:45;42.95;;;15.98;;
7605;SDS011;3844;53.360;9.738;2023-02-15T05:47:46;45.28;;;17.38;;
7605;SDS011;3844;53.360;9.738;2023-02-15T05:49:47;41.95;;;17.13;;
7605;SDS011;3844;53.360;9.738;2023-02-15T05:51:48;58.58;;;18.67;;
7605;SDS011;3844;53.360;9.738;2023-02-15T05:53:48;45.25;;;17.00;;
7605;SDS011;3844;53.360;9.738;2023-02-15T05:55:49;40.50;;;17.05;;
7605;SDS011;3844;53.360;9.738;2023-02-15T05:57:50;40.10;;;16.45;;
7605;SDS011;3844;53.360;9.738;2023-02-15T05:59:50;41.33;;;17.33;;
7605;SDS011;3844;53.360;9.738;2023-02-15T06:01:51;40.22;;;16.17;;
7605;SDS011;3844;53.360;9.738;2023-02-15T06:03:54;33.45;;;14.95;;
7605;SDS011;3844;53.360;9.738;2023-02-15T06:05:56;35.58;;;15.82;;
7605;SDS011;3844;53.360;9.738;2023-02-15T06:07:59;36.10;;;15.15;;
7605;SDS011;3844;53.360;9.738;2023-02-15T06:09:59;33.03;;;14.15;;
7605;SDS011;3844;53.360;9.738;2023-02-15T06:12:00;29.95;;;13.80;;
7605;SDS011;3844;53.360;9.738;2023-02-15T06:14:01;34.63;;;14.98;;
7605;SDS011;3844;53.360;9.738;2023-02-15T06:16:03;31.83;;;13.98;;
7605;SDS011;3844;53.360;9.738;2023-02-15T06:18:04;31.77;;;14.52;;
7605;SDS011;3844;53.360;9.738;2023-02-15T06:20:04;32.17;;;14.23;;
7605;SDS011;3844;53.360;9.738;2023-02-15T06:22:05;32.05;;;15.07;;
7605;SDS011;3844;53.360;9.738;2023-02-15T06:24:08;40.25;;;16.98;;
7605;SDS011;3844;53.360;9.738;2023-02-15T06:26:10;37.63;;;15.90;;
7605;SDS011;3844;53.360;9.738;2023-02-15T06:28:11;33.90;;;14.27;;
7605;SDS011;3844;53.360;9.738;2023-02-15T06:30:12;37.55;;;15.80;;
7605;SDS011;3844;53.360;9.738;2023-02-15T06:32:13;45.88;;;18.48;;
7605;SDS011;3844;53.360;9.738;2023-02-15T06:34:14;37.42;;;15.48;;
7605;SDS011;3844;53.360;9.738;2023-02-15T06:36:15;38.50;;;14.90;;
7605;SDS011;3844;53.360;9.738;2023-02-15T06:38:16;30.80;;;14.13;;
7605;SDS011;3844;53.360;9.738;2023-02-15T06:40:17;37.00;;;16.33;;
7605;SDS011;3844;53.360;9.738;2023-02-15T06:42:18;41.30;;;17.15;;
7605;SDS011;3844;53.360;9.738;2023-02-15T06:44:19;37.85;;;16.38;;
7605;SDS011;3844;53.360;9.738;2023-02-15T06:46:19;36.83;;;15.63;;
7605;SDS011;3844;53.360;9.738;2023-02-15T06:48:20;38.92;;;16.77;;
7605;SDS011;3844;53.360;9.738;2023-02-15T06:50:23;34.63;;;15.13;;
7605;SDS011;3844;53.360;9.738;2023-02-15T06:52:23;42.90;;;17.83;;
7605;SDS011;3844;53.360;9.738;2023-02-15T06:54:25;34.40;;;15.23;;
7605;SDS011;3844;53.360;9.738;2023-02-15T06:56:28;32.35;;;15.15;;
7605;SDS011;3844;53.360;9.738;2023-02-15T06:58:29;32.72;;;14.32;;
7605;SDS011;3844;53.360;9.738;2023-02-15T07:00:32;42.67;;;16.90;;
7605;SDS011;3844;53.360;9.738;2023-02-15T07:02:33;35.70;;;15.63;;
7605;SDS011;3844;53.360;9.738;2023-02-15T07:04:33;34.63;;;16.02;;
7605;SDS011;3844;53.360;9.738;2023-02-15T07:06:34;32.42;;;14.23;;
7605;SDS011;3844;53.360;9.738;2023-02-15T07:08:35;31.48;;;14.40;;
7605;SDS011;3844;53.360;9.738;2023-02-15T07:10:36;29.40;;;14.18;;
7605;SDS011;3844;53.360;9.738;2023-02-15T07:12:37;40.42;;;16.17;;
7605;SDS011;3844;53.360;9.738;2023-02-15T07:14:41;35.05;;;15.90;;
7605;SDS011;3844;53.360;9.738;2023-02-15T07:16:42;43.30;;;18.00;;
7605;SDS011;3844;53.360;9.738;2023-02-15T07:18:43;35.80;;;16.10;;
7605;SDS011;3844;53.360;9.738;2023-02-15T07:20:43;31.42;;;14.10;;
7605;SDS011;3844;53.360;9.738;2023-02-15T07:22:44;39.88;;;16.90;;
7605;SDS011;3844;53.360;9.738;2023-02-15T07:24:45;40.13;;;17.67;;
7605;SDS011;3844;53.360;9.738;2023-02-15T07:26:47;38.22;;;16.30;;
7605;SDS011;3844;53.360;9.738;2023-02-15T07:28:48;33.28;;;15.15;;
7605;SDS011;3844;53.360;9.738;2023-02-15T07:30:49;34.50;;;15.18;;
7605;SDS011;3844;53.360;9.738;2023-02-15T07:32:49;32.58;;;14.48;;
7605;SDS011;3844;53.360;9.738;2023-02-15T07:35:08;35.47;;;15.88;;
7605;SDS011;3844;53.360;9.738;2023-02-15T07:37:09;36.80;;;17.10;;
7605;SDS011;3844;53.360;9.738;2023-02-15T07:39:10;33.15;;;16.15;;
7605;SDS011;3844;53.360;9.738;2023-02-15T07:41:12;37.15;;;15.88;;
7605;SDS011;3844;53.360;9.738;2023-02-15T07:43:13;30.57;;;14.93;;
7605;SDS011;3844;53.360;9.738;2023-02-15T07:45:14;29.88;;;14.25;;
7605;SDS011;3844;53.360;9.738;2023-02-15T07:47:15;28.48;;;14.60;;
7605;SDS011;3844;53.360;9.738;2023-02-15T07:49:16;31.65;;;15.65;;
7605;SDS011;3844;53.360;9.738;2023-02-15T07:51:16;30.30;;;14.95;;
7605;SDS011;3844;53.360;9.738;2023-02-15T07:53:17;35.67;;;17.17;;
7605;SDS011;3844;53.360;9.738;2023-02-15T07:55:18;28.73;;;14.77;;
7605;SDS011;3844;53.360;9.738;2023-02-15T07:57:19;29.60;;;14.80;;
7605;SDS011;3844;53.360;9.738;2023-02-15T07:59:19;28.63;;;14.77;;
7605;SDS011;3844;53.360;9.738;2023-02-15T08:03:31;31.02;;;15.70;;
7605;SDS011;3844;53.360;9.738;2023-02-15T08:05:32;33.60;;;16.75;;
7605;SDS011;3844;53.360;9.738;2023-02-15T08:07:32;27.63;;;14.55;;
7605;SDS011;3844;53.360;9.738;2023-02-15T08:09:33;32.13;;;16.00;;
7605;SDS011;3844;53.360;9.738;2023-02-15T08:11:35;34.22;;;16.15;;
7605;SDS011;3844;53.360;9.738;2023-02-15T08:13:37;29.95;;;15.07;;
7605;SDS011;3844;53.360;9.738;2023-02-15T08:15:53;29.45;;;15.00;;
7605;SDS011;3844;53.360;9.738;2023-02-15T08:17:54;28.13;;;14.52;;
7605;SDS011;3844;53.360;9.738;2023-02-15T08:19:54;28.05;;;14.52;;
7605;SDS011;3844;53.360;9.738;2023-02-15T08:21:56;25.52;;;14.02;;
7605;SDS011;3844;53.360;9.738;2023-02-15T08:23:59;31.30;;;14.32;;
7605;SDS011;3844;53.360;9.738;2023-02-15T08:26:00;32.83;;;15.88;;
7605;SDS011;3844;53.360;9.738;2023-02-15T08:28:01;30.45;;;15.32;;
7605;SDS011;3844;53.360;9.738;2023-02-15T08:30:02;32.90;;;15.45;;
7605;SDS011;3844;53.360;9.738;2023-02-15T08:32:08;40.15;;;17.17;;
7605;SDS011;3844;53.360;9.738;2023-02-15T08:34:11;28.15;;;14.70;;
7605;SDS011;3844;53.360;9.738;2023-02-15T08:36:15;30.52;;;14.43;;
7605;SDS011;3844;53.360;9.738;2023-02-15T08:38:17;32.22;;;16.40;;
7605;SDS011;3844;53.360;9.738;2023-02-15T08:40:18;29.63;;;15.02;;
7605;SDS011;3844;53.360;9.738;2023-02-15T08:42:18;25.10;;;13.65;;
7605;SDS011;3844;53.360;9.738;2023-02-15T08:44:20;29.45;;;14.73;;
7605;SDS011;3844;53.360;9.738;2023-02-15T08:46:22;33.08;;;16.45;;
7605;SDS011;3844;53.360;9.738;2023-02-15T08:48:25;28.65;;;14.73;;
7605;SDS011;3844;53.360;9.738;2023-02-15T08:50:25;27.33;;;14.60;;
7605;SDS011;3844;53.360;9.738;2023-02-15T08:52:26;30.55;;;15.07;;
7605;SDS011;3844;53.360;9.738;2023-02-15T08:54:27;33.95;;;16.40;;
7605;SDS011;3844;53.360;9.738;2023-02-15T08:56:29;26.27;;;14.35;;
7605;SDS011;3844;53.360;9.738;2023-02-15T08:58:32;32.63;;;17.23;;
7605;SDS011;3844;53.360;9.738;2023-02-15T09:00:33;31.75;;;16.00;;
7605;SDS011;3844;53.360;9.738;2023-02-15T09:02:34;25.98;;;14.32;;
7605;SDS011;3844;53.360;9.738;2023-02-15T09:04:36;26.92;;;15.05;;
7605;SDS011;3844;53.360;9.738;2023-02-15T09:06:37;28.90;;;15.30;;
7605;SDS011;3844;53.360;9.738;2023-02-15T09:08:39;30.90;;;15.95;;
7605;SDS011;3844;53.360;9.738;2023-02-15T09:10:39;30.63;;;16.45;;
7605;SDS011;3844;53.360;9.738;2023-02-15T09:12:40;27.58;;;14.63;;
7605;SDS011;3844;53.360;9.738;2023-02-15T09:14:41;25.52;;;14.35;;
7605;SDS011;3844;53.360;9.738;2023-02-15T09:16:42;23.35;;;13.35;;
7605;SDS011;3844;53.360;9.738;2023-02-15T09:18:46;23.58;;;13.38;;
7605;SDS011;3844;53.360;9.738;2023-02-15T09:20:47;21.10;;;12.30;;
7605;SDS011;3844;53.360;9.738;2023-02-15T09:22:48;30.20;;;15.23;;
7605;SDS011;3844;53.360;9.738;2023-02-15T09:26:53;25.85;;;14.32;;
7605;SDS011;3844;53.360;9.738;2023-02-15T09:28:54;22.42;;;13.38;;
7605;SDS011;3844;53.360;9.738;2023-02-15T09:30:56;21.52;;;13.30;;
7605;SDS011;3844;53.360;9.738;2023-02-15T09:32:57;23.23;;;13.25;;
7605;SDS011;3844;53.360;9.738;2023-02-15T09:34:58;28.13;;;16.27;;
7605;SDS011;3844;53.360;9.738;2023-02-15T09:36:58;23.17;;;13.25;;
7605;SDS011;3844;53.360;9.738;2023-02-15T09:39:09;22.45;;;13.50;;
7605;SDS011;3844;53.360;9.738;2023-02-15T09:41:20;22.48;;;13.23;;
7605;SDS011;3844;53.360;9.738;2023-02-15T09:43:32;27.08;;;16.50;;
7605;SDS011;3844;53.360;9.738;2023-02-15T09:45:57;24.23;;;14.57;;
7605;SDS011;3844;53.360;9.738;2023-02-15T09:50:56;23.33;;;14.00;;
7605;SDS011;3844;53.360;9.738;2023-02-15T09:53:20;23.17;;;13.63;;
7605;SDS011;3844;53.360;9.738;2023-02-15T10:03:20;23.27;;;14.18;;
7605;SDS011;3844;53.360;9.738;2023-02-15T10:10:34;25.98;;;15.43;;
7605;SDS011;3844;53.360;9.738;2023-02-15T10:15:18;25.98;;;15.43;;
7605;SDS011;3844;53.360;9.738;2023-02-15T10:31:06;19.80;;;13.07;;
7605;SDS011;3844;53.360;9.738;2023-02-15T10:35:34;18.35;;;11.85;;
7605;SDS011;3844;53.360;9.738;2023-02-15T10:40:21;18.95;;;12.15;;
7605;SDS011;3844;53.360;9.738;2023-02-15T10:47:33;19.13;;;12.50;;
7605;SDS011;3844;53.360;9.738;2023-02-15T10:57:10;19.08;;;11.90;;
7605;SDS011;3844;53.360;9.738;2023-02-15T11:06:13;16.58;;;10.57;;
7605;SDS011;3844;53.360;9.738;2023-02-15T11:08:17;17.38;;;10.95;;
7605;SDS011;3844;53.360;9.738;2023-02-15T11:12:41;18.80;;;12.00;;
7605;SDS011;3844;53.360;9.738;2023-02-15T11:16:54;18.88;;;12.10;;
7605;SDS011;3844;53.360;9.738;2023-02-15T11:19:09;19.95;;;12.30;;
7605;SDS011;3844;53.360;9.738;2023-02-15T11:23:24;19.92;;;12.52;;
7605;SDS011;3844;53.360;9.738;2023-02-15T11:25:35;20.02;;;12.55;;
7605;SDS011;3844;53.360;9.738;2023-02-15T11:27:36;19.67;;;12.55;;
7605;SDS011;3844;53.360;9.738;2023-02-15T11:29:41;20.08;;;12.98;;
7605;SDS011;3844;53.360;9.738;2023-02-15T11:31:56;20.35;;;12.07;;
7605;SDS011;3844;53.360;9.738;2023-02-15T11:34:05;18.38;;;12.02;;
7605;SDS011;3844;53.360;9.738;2023-02-15T11:36:21;19.15;;;12.57;;
7605;SDS011;3844;53.360;9.738;2023-02-15T11:38:31;19.92;;;13.00;;
7605;SDS011;3844;53.360;9.738;2023-02-15T11:40:41;21.20;;;13.45;;
7605;SDS011;3844;53.360;9.738;2023-02-15T11:42:44;20.92;;;13.25;;
7605;SDS011;3844;53.360;9.738;2023-02-15T11:47:09;19.88;;;13.45;;
7605;SDS011;3844;53.360;9.738;2023-02-15T11:51:34;21.05;;;13.07;;
7605;SDS011;3844;53.360;9.738;2023-02-15T11:53:36;19.17;;;12.68;;
7605;SDS011;3844;53.360;9.738;2023-02-15T11:55:38;20.58;;;12.63;;
7605;SDS011;3844;53.360;9.738;2023-02-15T11:57:41;21.38;;;13.35;;
7605;SDS011;3844;53.360;9.738;2023-02-15T11:59:47;21.98;;;13.63;;
7605;SDS011;3844;53.360;9.738;2023-02-15T12:01:53;21.45;;;13.82;;
7605;SDS011;3844;53.360;9.738;2023-02-15T12:06:03;22.38;;;13.63;;
7605;SDS011;3844;53.360;9.738;2023-02-15T12:08:15;20.15;;;13.05;;
7605;SDS011;3844;53.360;9.738;2023-02-15T12:10:25;19.67;;;12.88;;
7605;SDS011;3844;53.360;9.738;2023-02-15T12:12:31;18.63;;;12.43;;
7605;SDS011;3844;53.360;9.738;2023-02-15T12:15:06;21.38;;;13.30;;
7605;SDS011;3844;53.360;9.738;2023-02-15T12:17:12;18.35;;;12.70;;
7605;SDS011;3844;53.360;9.738;2023-02-15T12:19:59;21.75;;;14.00;;
7605;SDS011;3844;53.360;9.738;2023-02-15T12:21:40;24.92;;;14.98;;
7605;SDS011;3844;53.360;9.738;2023-02-15T12:23:50;22.58;;;15.48;;
7605;SDS011;3844;53.360;9.738;2023-02-15T12:25:53;21.52;;;13.98;;
7605;SDS011;3844;53.360;9.738;2023-02-15T12:27:55;23.25;;;14.18;;
7605;SDS011;3844;53.360;9.738;2023-02-15T12:29:58;20.50;;;13.35;;
7605;SDS011;3844;53.360;9.738;2023-02-15T12:32:02;20.60;;;13.52;;
7605;SDS011;3844;53.360;9.738;2023-02-15T12:34:08;22.55;;;14.27;;
7605;SDS011;3844;53.360;9.738;2023-02-15T12:36:21;22.63;;;13.80;;
7605;SDS011;3844;53.360;9.738;2023-02-15T12:38:24;21.65;;;13.95;;
7605;SDS011;3844;53.360;9.738;2023-02-15T12:40:28;23.15;;;14.75;;
7605;SDS011;3844;53.360;9.738;2023-02-15T12:42:41;24.33;;;15.98;;
7605;SDS011;3844;53.360;9.738;2023-02-15T12:45:02;28.80;;;17.58;;
7605;SDS011;3844;53.360;9.738;2023-02-15T12:47:19;27.23;;;17.42;;
7605;SDS011;3844;53.360;9.738;2023-02-15T12:49:20;28.50;;;18.20;;
7605;SDS011;3844;53.360;9.738;2023-02-15T12:51:21;29.63;;;19.05;;
7605;SDS011;3844;53.360;9.738;2023-02-15T12:53:22;29.38;;;17.95;;
7605;SDS011;3844;53.360;9.738;2023-02-15T12:55:32;29.45;;;18.08;;
7605;SDS011;3844;53.360;9.738;2023-02-15T12:57:32;27.95;;;17.38;;
7605;SDS011;3844;53.360;9.738;2023-02-15T12:59:33;26.75;;;16.77;;
7605;SDS011;3844;53.360;9.738;2023-02-15T13:01:34;25.48;;;16.38;;
7605;SDS011;3844;53.360;9.738;2023-02-15T13:03:37;26.13;;;16.23;;
7605;SDS011;3844;53.360;9.738;2023-02-15T13:05:51;29.38;;;17.75;;
7605;SDS011;3844;53.360;9.738;2023-02-15T13:07:56;24.88;;;16.08;;
7605;SDS011;3844;53.360;9.738;2023-02-15T13:09:58;26.08;;;16.27;;
7605;SDS011;3844;53.360;9.738;2023-02-15T13:12:10;25.45;;;15.82;;
7605;SDS011;3844;53.360;9.738;2023-02-15T13:14:30;25.95;;;15.80;;
7605;SDS011;3844;53.360;9.738;2023-02-15T13:16:33;25.67;;;16.27;;
7605;SDS011;3844;53.360;9.738;2023-02-15T13:18:37;28.88;;;17.65;;
7605;SDS011;3844;53.360;9.738;2023-02-15T13:20:41;31.85;;;18.48;;
7605;SDS011;3844;53.360;9.738;2023-02-15T13:22:45;28.30;;;17.10;;
7605;SDS011;3844;53.360;9.738;2023-02-15T13:24:48;29.30;;;17.58;;
7605;SDS011;3844;53.360;9.738;2023-02-15T13:26:58;33.03;;;18.98;;
7605;SDS011;3844;53.360;9.738;2023-02-15T13:29:05;30.15;;;18.23;;
7605;SDS011;3844;53.360;9.738;2023-02-15T13:31:13;28.73;;;17.92;;
7605;SDS011;3844;53.360;9.738;2023-02-15T13:33:34;27.42;;;16.77;;
7605;SDS011;3844;53.360;9.738;2023-02-15T13:35:39;32.58;;;18.25;;
7605;SDS011;3844;53.360;9.738;2023-02-15T13:38:06;31.50;;;18.08;;
7605;SDS011;3844;53.360;9.738;2023-02-15T13:40:11;31.45;;;18.52;;
7605;SDS011;3844;53.360;9.738;2023-02-15T14:00:27;28.80;;;17.23;;
7605;SDS011;3844;53.360;9.738;2023-02-15T14:20:20;26.10;;;15.70;;
7605;SDS011;3844;53.360;9.738;2023-02-15T14:25:30;29.85;;;17.20;;
7605;SDS011;3844;53.360;9.738;2023-02-15T14:29:51;32.97;;;17.90;;
7605;SDS011;3844;53.360;9.738;2023-02-15T14:31:57;29.23;;;17.20;;
7605;SDS011;3844;53.360;9.738;2023-02-15T14:34:04;31.85;;;17.73;;
7605;SDS011;3844;53.360;9.738;2023-02-15T14:36:05;29.65;;;17.02;;
7605;SDS011;3844;53.360;9.738;2023-02-15T14:43:06;29.25;;;16.10;;
7605;SDS011;3844;53.360;9.738;2023-02-15T14:45:35;27.85;;;15.98;;
7605;SDS011;3844;53.360;9.738;2023-02-15T14:48:45;30.92;;;16.33;;
7605;SDS011;3844;53.360;9.738;2023-02-15T14:52:30;30.23;;;17.60;;
7605;SDS011;3844;53.360;9.738;2023-02-15T14:56:34;30.05;;;16.80;;
7605;SDS011;3844;53.360;9.738;2023-02-15T14:58:35;28.67;;;16.70;;
7605;SDS011;3844;53.360;9.738;2023-02-15T15:00:54;30.45;;;16.67;;
7605;SDS011;3844;53.360;9.738;2023-02-15T15:03:26;27.95;;;15.75;;
7605;SDS011;3844;53.360;9.738;2023-02-15T15:05:32;30.60;;;16.50;;
7605;SDS011;3844;53.360;9.738;2023-02-15T15:09:36;25.83;;;14.73;;
7605;SDS011;3844;53.360;9.738;2023-02-15T15:11:44;25.75;;;15.05;;
7605;SDS011;3844;53.360;9.738;2023-02-15T15:13:55;29.35;;;15.45;;